This is the latest recevied weather packets stored in our database for station/object LU2DKV-10. If no packets are shown the sender has not sent any weather packets the latest 10 day(s).
| Time | Temp. | Humidity | Pressure | Rain* | Wind** | Luminosity | Snow |
|---|---|---|---|---|---|---|---|
| 1788319063 | 12.78° C | 92% | 1019 hPa | - | - | 0 W/m² | - |
| 1788317239 | 13.33° C | 93% | 1019 hPa | - | - | 0 W/m² | - |
| 1788315415 | 13.33° C | 94% | 1019 hPa | - | - | 0 W/m² | - |
| 1788313592 | 13.89° C | 94% | 1019 hPa | - | - | 0 W/m² | - |
| 1788311763 | 13.89° C | 96% | 1019 hPa | - | - | 0 W/m² | - |
| 1788309940 | 13.89° C | 96% | 1020 hPa | - | - | 0 W/m² | - |
| 1788308118 | 13.89° C | 96% | 1019 hPa | - | - | 0 W/m² | - |
| 1788306293 | 13.89° C | 93% | 1019 hPa | - | - | 0 W/m² | - |
| 1788304471 | 14.44° C | 91% | 1019 hPa | - | - | 0 W/m² | - |
| 1788302649 | 14.44° C | 87% | 1019 hPa | - | - | 0 W/m² | - |
| 1788300827 | 15° C | 85% | 1019 hPa | - | - | 0 W/m² | - |
| 1788299002 | 15.56° C | 81% | 1019 hPa | - | - | 0 W/m² | - |
| 1788297180 | 16.11° C | 77% | 1019 hPa | - | - | 0 W/m² | - |
| 1788295357 | 16.67° C | 74% | 1019 hPa | - | - | 0 W/m² | - |
| 1788293536 | 17.22° C | 71% | 1019 hPa | - | - | 0 W/m² | - |
| 1788291712 | 17.78° C | 68% | 1019 hPa | - | - | 0 W/m² | - |
| 1788289890 | 18.33° C | 68% | 1018 hPa | - | - | 0 W/m² | - |
| 1788288068 | 18.33° C | 69% | 1018 hPa | - | - | 0 W/m² | - |
| 1788286242 | 18.89° C | 67% | 1018 hPa | - | - | 0 W/m² | - |
| 1788284420 | 18.89° C | 64% | 1019 hPa | - | - | 0 W/m² | - |
| 1788282596 | 18.33° C | 64% | 1019 hPa | - | - | 0 W/m² | - |
| 1788280771 | 18.33° C | 66% | 1019 hPa | - | - | 0 W/m² | - |
| 1788278947 | 17.78° C | 71% | 1020 hPa | - | - | 0 W/m² | - |
| 1788277123 | 17.22° C | 72% | 1020 hPa | - | - | 0 W/m² | - |
| 1788275299 | 16.67° C | 74% | 1021 hPa | - | - | 0 W/m² | - |
* Rain since midnight (hover to see other rain measurements)
** Current wind speed in m/s (hover to see current wind gust speed)